Time,TemperatureF,DewpointF,PressureIn,WindDirection,WindDirectionDegrees,WindSpeedMPH,WindSpeedGustMPH,Humidity,HourlyPrecipIn,Conditions,Clouds,dailyrainin,SoftwareType,DateUTC
2013-10-12 00:09:00,26.7,26.0,30.05,SW,236,5.0,-999.0,95,-99.99,,,0.00,weatherlink.com 1.10,2013-10-12 06:09:00,
2013-10-12 00:24:00,26.7,26.0,30.05,WSW,244,7.0,-999.0,95,-99.99,,,0.00,weatherlink.com 1.10,2013-10-12 06:24:00,
2013-10-12 00:39:00,26.6,25.0,30.05,SSW,210,13.0,-999.0,95,-99.99,,,0.00,weatherlink.com 1.10,2013-10-12 06:39:00,
2013-10-12 00:54:00,26.5,25.0,30.05,SW,233,11.0,-999.0,95,-99.99,,,0.00,weatherlink.com 1.10,2013-10-12 06:54:00,
2013-10-12 01:10:00,26.4,25.0,30.05,SW,220,8.0,-999.0,95,-99.99,,,0.00,weatherlink.com 1.10,2013-10-12 07:10:00,
2013-10-12 01:25:00,26.7,26.0,30.06,SSW,197,8.0,-999.0,95,-99.99,,,0.00,weatherlink.com 1.10,2013-10-12 07:25:00,
2013-10-12 01:40:00,26.8,26.0,30.06,SSW,205,14.0,-999.0,95,-99.99,,,0.00,weatherlink.com 1.10,2013-10-12 07:40:00,
2013-10-12 01:55:00,26.5,25.0,30.06,South,184,11.0,-999.0,94,-99.99,,,0.00,weatherlink.com 1.10,2013-10-12 07:55:00,
2013-10-12 02:11:00,26.5,25.0,30.06,SSW,203,12.0,-999.0,94,-99.99,,,0.00,weatherlink.com 1.10,2013-10-12 08:11:00,
2013-10-12 02:25:00,26.3,25.0,30.07,SSW,195,13.0,-999.0,94,-99.99,,,0.00,weatherlink.com 1.10,2013-10-12 08:25:00,
2013-10-12 02:41:00,26.2,25.0,30.06,WSW,250,15.0,-999.0,94,-99.99,,,0.00,weatherlink.com 1.10,2013-10-12 08:41:00,
2013-10-12 02:56:00,25.9,24.0,30.06,SW,214,14.0,-999.0,93,-99.99,,,0.00,weatherlink.com 1.10,2013-10-12 08:56:00,
2013-10-12 03:11:00,25.9,24.0,30.06,SW,214,14.0,-999.0,93,-99.99,,,0.00,weatherlink.com 1.10,2013-10-12 09:11:00,
2013-10-12 03:26:00,25.8,24.0,30.06,SSW,209,17.0,-999.0,93,-99.99,,,0.00,weatherlink.com 1.10,2013-10-12 09:26:00,
2013-10-12 03:41:00,25.8,24.0,30.06,SSW,195,17.0,-999.0,93,-99.99,,,0.00,weatherlink.com 1.10,2013-10-12 09:41:00,
2013-10-12 03:56:00,25.8,24.0,30.06,SSW,199,10.0,-999.0,93,-99.99,,,0.00,weatherlink.com 1.10,2013-10-12 09:56:00,
2013-10-12 04:12:00,25.5,24.0,30.06,South,176,17.0,-999.0,93,-99.99,,,0.00,weatherlink.com 1.10,2013-10-12 10:12:00,
2013-10-12 04:28:00,25.7,24.0,30.06,SW,215,18.0,-999.0,93,-99.99,,,0.00,weatherlink.com 1.10,2013-10-12 10:28:00,
2013-10-12 04:42:00,26.0,24.0,30.06,South,188,14.0,-999.0,92,-99.99,,,0.00,weatherlink.com 1.10,2013-10-12 10:42:00,
2013-10-12 04:58:00,26.0,24.0,30.06,South,189,17.0,-999.0,93,-99.99,,,0.00,weatherlink.com 1.10,2013-10-12 10:58:00,
2013-10-12 05:12:00,25.9,24.0,30.07,SSW,211,17.0,-999.0,93,-99.99,,,0.00,weatherlink.com 1.10,2013-10-12 11:12:00,
2013-10-12 05:27:00,26.0,25.0,30.07,South,186,18.0,-999.0,94,-99.99,,,0.00,weatherlink.com 1.10,2013-10-12 11:27:00,
2013-10-12 05:43:00,26.3,25.0,30.07,South,188,12.0,-999.0,95,-99.99,,,0.00,weatherlink.com 1.10,2013-10-12 11:43:00,
2013-10-12 05:58:00,26.4,25.0,30.07,South,186,17.0,-999.0,95,-99.99,,,0.00,weatherlink.com 1.10,2013-10-12 11:58:00,
2013-10-12 06:13:00,26.5,25.0,30.07,SSW,199,17.0,-999.0,95,-99.99,,,0.00,weatherlink.com 1.10,2013-10-12 12:13:00,
2013-10-12 06:28:00,26.7,25.0,30.07,South,186,14.0,-999.0,94,-99.99,,,0.00,weatherlink.com 1.10,2013-10-12 12:28:00,
2013-10-12 06:43:00,27.0,26.0,30.08,South,190,16.0,-999.0,94,-99.99,,,0.00,weatherlink.com 1.10,2013-10-12 12:43:00,
2013-10-12 06:58:00,26.8,25.0,30.08,South,188,14.0,-999.0,94,-99.99,,,0.00,weatherlink.com 1.10,2013-10-12 12:58:00,
2013-10-12 07:13:00,27.2,25.0,30.08,SSW,201,12.0,-999.0,92,-99.99,,,0.00,weatherlink.com 1.10,2013-10-12 13:13:00,
2013-10-12 07:29:00,27.0,25.0,30.08,South,177,16.0,-999.0,92,-99.99,,,0.00,weatherlink.com 1.10,2013-10-12 13:29:00,
2013-10-12 07:44:00,26.9,25.0,30.09,South,187,13.0,-999.0,92,-99.99,,,0.00,weatherlink.com 1.10,2013-10-12 13:44:00,
2013-10-12 07:59:00,27.3,26.0,30.09,South,181,16.0,-999.0,93,-99.99,,,0.00,weatherlink.com 1.10,2013-10-12 13:59:00,
2013-10-12 08:14:00,27.5,26.0,30.09,South,188,17.0,-999.0,92,-99.99,,,0.00,weatherlink.com 1.10,2013-10-12 14:14:00,
2013-10-12 08:30:00,27.6,26.0,30.10,South,180,11.0,-999.0,92,-99.99,,,0.00,weatherlink.com 1.10,2013-10-12 14:30:00,
2013-10-12 08:45:00,28.2,26.0,30.11,South,169,16.0,-999.0,91,-99.99,,,0.00,weatherlink.com 1.10,2013-10-12 14:45:00,
2013-10-12 09:00:00,28.5,26.0,30.12,South,176,15.0,-999.0,90,-99.99,,,0.00,weatherlink.com 1.10,2013-10-12 15:00:00,
2013-10-12 09:15:00,28.8,26.0,30.12,SSE,167,18.0,-999.0,89,-99.99,,,0.00,weatherlink.com 1.10,2013-10-12 15:15:00,
2013-10-12 09:30:00,29.1,26.0,30.12,SSE,163,11.0,-999.0,88,-99.99,,,0.00,weatherlink.com 1.10,2013-10-12 15:30:00,
2013-10-12 09:45:00,30.1,27.0,30.12,SSE,165,16.0,-999.0,89,-99.99,,,0.00,weatherlink.com 1.10,2013-10-12 15:45:00,
2013-10-12 10:00:00,30.3,27.0,30.13,South,173,13.0,-999.0,86,-99.99,,,0.00,weatherlink.com 1.10,2013-10-12 16:00:00,
2013-10-12 10:16:00,31.0,27.0,30.13,SSE,160,15.0,-999.0,84,-99.99,,,0.00,weatherlink.com 1.10,2013-10-12 16:16:00,
2013-10-12 10:31:00,32.2,27.0,30.13,SSE,157,15.0,-999.0,81,-99.99,,,0.00,weatherlink.com 1.10,2013-10-12 16:31:00,
2013-10-12 10:46:00,32.7,26.0,30.13,SSE,168,19.0,-999.0,77,-99.99,,,0.00,weatherlink.com 1.10,2013-10-12 16:46:00,
2013-10-12 11:01:00,33.0,25.0,30.13,SSE,161,17.0,-999.0,73,-99.99,,,0.00,weatherlink.com 1.10,2013-10-12 17:01:00,
2013-10-12 11:16:00,33.5,26.0,30.12,SSE,151,20.0,-999.0,73,-99.99,,,0.00,weatherlink.com 1.10,2013-10-12 17:16:00,
2013-10-12 11:31:00,33.6,25.0,30.12,South,184,20.0,-999.0,71,-99.99,,,0.00,weatherlink.com 1.10,2013-10-12 17:31:00,
2013-10-12 11:47:00,35.0,25.0,30.11,South,178,20.0,-999.0,67,-99.99,,,0.00,weatherlink.com 1.10,2013-10-12 17:47:00,
2013-10-12 12:02:00,36.3,26.0,30.11,SSE,162,20.0,-999.0,67,-99.99,,,0.00,weatherlink.com 1.10,2013-10-12 18:02:00,
2013-10-12 12:17:00,36.1,24.0,30.10,SSW,197,12.0,-999.0,63,-99.99,,,0.00,weatherlink.com 1.10,2013-10-12 18:17:00,
2013-10-12 12:32:00,36.8,26.0,30.10,South,179,19.0,-999.0,64,-99.99,,,0.00,weatherlink.com 1.10,2013-10-12 18:32:00,
2013-10-12 12:47:00,38.2,27.0,30.09,South,183,21.0,-999.0,64,-99.99,,,0.01,weatherlink.com 1.10,2013-10-12 18:47:00,
2013-10-12 13:03:00,37.9,26.0,30.09,SSE,151,16.0,-999.0,62,-99.99,,,0.01,weatherlink.com 1.10,2013-10-12 19:03:00,
2013-10-12 13:18:00,38.9,27.0,30.09,SW,226,11.0,-999.0,63,-99.99,,,0.01,weatherlink.com 1.10,2013-10-12 19:18:00,
2013-10-12 13:33:00,37.9,26.0,30.08,SSE,165,18.0,-999.0,62,-99.99,,,0.01,weatherlink.com 1.10,2013-10-12 19:33:00,
2013-10-12 13:48:00,36.9,26.0,30.08,SSW,210,13.0,-999.0,66,-99.99,,,0.01,weatherlink.com 1.10,2013-10-12 19:48:00,
2013-10-12 14:03:00,38.5,27.0,30.09,SSW,196,6.0,-999.0,64,-99.99,,,0.01,weatherlink.com 1.10,2013-10-12 20:03:00,
2013-10-12 14:19:00,39.2,27.0,30.08,SSW,213,12.0,-999.0,62,-99.99,,,0.02,weatherlink.com 1.10,2013-10-12 20:19:00,
2013-10-12 14:34:00,37.7,27.0,30.08,South,190,7.0,-999.0,65,-99.99,,,0.02,weatherlink.com 1.10,2013-10-12 20:34:00,
2013-10-12 14:49:00,36.6,28.0,30.08,South,190,10.0,-999.0,70,-99.99,,,0.02,weatherlink.com 1.10,2013-10-12 20:49:00,
2013-10-12 15:04:00,38.4,25.0,30.08,WSW,251,4.0,-999.0,60,-99.99,,,0.02,weatherlink.com 1.10,2013-10-12 21:04:00,
2013-10-12 15:19:00,38.2,25.0,30.08,SSW,210,8.0,-999.0,60,-99.99,,,0.02,weatherlink.com 1.10,2013-10-12 21:19:00,
2013-10-12 15:34:00,39.2,25.0,30.07,South,170,4.0,-999.0,58,-99.99,,,0.02,weatherlink.com 1.10,2013-10-12 21:34:00,
2013-10-12 15:49:00,38.9,24.0,30.07,SSW,201,14.0,-999.0,55,-99.99,,,0.02,weatherlink.com 1.10,2013-10-12 21:49:00,
2013-10-12 16:05:00,40.4,25.0,30.07,South,186,5.0,-999.0,55,-99.99,,,0.02,weatherlink.com 1.10,2013-10-12 22:05:00,
2013-10-12 16:20:00,40.7,25.0,30.07,South,178,9.0,-999.0,55,-99.99,,,0.02,weatherlink.com 1.10,2013-10-12 22:20:00,
2013-10-12 16:35:00,37.5,25.0,30.08,SSW,193,7.0,-999.0,60,-99.99,,,0.02,weatherlink.com 1.10,2013-10-12 22:35:00,
2013-10-12 16:50:00,37.6,25.0,30.07,SSE,162,10.0,-999.0,60,-99.99,,,0.02,weatherlink.com 1.10,2013-10-12 22:50:00,
2013-10-12 17:05:00,38.8,25.0,30.07,SSE,149,8.0,-999.0,59,-99.99,,,0.02,weatherlink.com 1.10,2013-10-12 23:05:00,
2013-10-12 17:20:00,40.0,26.0,30.07,South,170,7.0,-999.0,57,-99.99,,,0.02,weatherlink.com 1.10,2013-10-12 23:20:00,
2013-10-12 17:36:00,39.1,24.0,30.07,South,181,8.0,-999.0,56,-99.99,,,0.02,weatherlink.com 1.10,2013-10-12 23:36:00,
2013-10-12 17:51:00,38.7,26.0,30.07,SSW,201,4.0,-999.0,60,-99.99,,,0.02,weatherlink.com 1.10,2013-10-12 23:51:00,
2013-10-12 18:06:00,36.5,25.0,30.08,SW,220,2.0,-999.0,63,-99.99,,,0.02,weatherlink.com 1.10,2013-10-13 00:06:00,
2013-10-12 18:21:00,35.3,25.0,30.08,SSW,204,3.0,-999.0,67,-99.99,,,0.02,weatherlink.com 1.10,2013-10-13 00:21:00,
2013-10-12 18:36:00,35.2,25.0,30.08,South,182,6.0,-999.0,67,-99.99,,,0.02,weatherlink.com 1.10,2013-10-13 00:36:00,
2013-10-12 18:51:00,35.2,25.0,30.08,South,187,5.0,-999.0,66,-99.99,,,0.02,weatherlink.com 1.10,2013-10-13 00:51:00,
2013-10-12 19:06:00,35.3,24.0,30.08,South,184,8.0,-999.0,64,-99.99,,,0.02,weatherlink.com 1.10,2013-10-13 01:06:00,
2013-10-12 19:22:00,35.2,24.0,30.08,South,182,7.0,-999.0,64,-99.99,,,0.02,weatherlink.com 1.10,2013-10-13 01:22:00,
2013-10-12 19:37:00,35.1,24.0,30.09,South,186,6.0,-999.0,63,-99.99,,,0.02,weatherlink.com 1.10,2013-10-13 01:37:00,
2013-10-12 19:52:00,34.9,24.0,30.09,South,186,5.0,-999.0,64,-99.99,,,0.02,weatherlink.com 1.10,2013-10-13 01:52:00,
2013-10-12 20:07:00,34.9,24.0,30.09,South,172,7.0,-999.0,65,-99.99,,,0.02,weatherlink.com 1.10,2013-10-13 02:07:00,
2013-10-12 20:22:00,34.7,24.0,30.09,South,178,9.0,-999.0,65,-99.99,,,0.02,weatherlink.com 1.10,2013-10-13 02:22:00,
2013-10-12 20:37:00,34.6,24.0,30.09,South,170,7.0,-999.0,65,-99.99,,,0.02,weatherlink.com 1.10,2013-10-13 02:37:00,
2013-10-12 20:52:00,34.4,24.0,30.09,South,172,5.0,-999.0,65,-99.99,,,0.02,weatherlink.com 1.10,2013-10-13 02:52:00,
2013-10-12 21:08:00,34.8,23.0,30.09,South,182,7.0,-999.0,62,-99.99,,,0.02,weatherlink.com 1.10,2013-10-13 03:08:00,
2013-10-12 21:23:00,34.6,23.0,30.09,SSE,155,7.0,-999.0,63,-99.99,,,0.02,weatherlink.com 1.10,2013-10-13 03:23:00,
2013-10-12 21:38:00,34.4,23.0,30.09,SSE,168,7.0,-999.0,64,-99.99,,,0.02,weatherlink.com 1.10,2013-10-13 03:38:00,
2013-10-12 21:53:00,34.1,23.0,30.09,SE,145,5.0,-999.0,65,-99.99,,,0.02,weatherlink.com 1.10,2013-10-13 03:53:00,
2013-10-12 22:08:00,33.8,24.0,30.09,SSE,149,0.0,-999.0,68,-99.99,,,0.02,weatherlink.com 1.10,2013-10-13 04:08:00,
2013-10-12 22:23:00,33.5,23.0,30.08,SSE,149,2.0,-999.0,66,-99.99,,,0.02,weatherlink.com 1.10,2013-10-13 04:23:00,
2013-10-12 22:39:00,33.9,22.0,30.08,SE,142,1.0,-999.0,63,-99.99,,,0.02,weatherlink.com 1.10,2013-10-13 04:39:00,
2013-10-12 22:54:00,34.0,22.0,30.07,ESE,122,4.0,-999.0,62,-99.99,,,0.02,weatherlink.com 1.10,2013-10-13 04:54:00,
2013-10-12 23:09:00,33.5,23.0,30.07,ESE,115,4.0,-999.0,66,-99.99,,,0.02,weatherlink.com 1.10,2013-10-13 05:09:00,
2013-10-12 23:24:00,33.4,23.0,30.07,ESE,111,4.0,-999.0,66,-99.99,,,0.02,weatherlink.com 1.10,2013-10-13 05:24:00,
2013-10-12 23:39:00,33.3,23.0,30.07,ESE,111,5.0,-999.0,67,-99.99,,,0.02,weatherlink.com 1.10,2013-10-13 05:39:00,
2013-10-12 23:54:00,33.2,23.0,30.07,ESE,111,4.0,-999.0,67,-99.99,,,0.02,weatherlink.com 1.10,2013-10-13 05:54:00,